createdAt,value
2024-02-13T00:03:25.849Z,2.67
2024-02-13T00:08:40.874Z,4.15
2024-02-13T00:13:49.429Z,3.70
2024-02-13T00:18:53.669Z,2.50
2024-02-13T00:23:59.002Z,2.75
2024-02-13T00:29:04.196Z,4.78
2024-02-13T00:34:08.305Z,4.32
2024-02-13T00:39:13.952Z,4.55
2024-02-13T00:44:18.101Z,4.15
2024-02-13T00:49:22.632Z,6.43
2024-02-13T00:54:28.907Z,3.13
2024-02-13T00:59:33.171Z,5.95
2024-02-13T01:04:38.029Z,4.23
2024-02-13T01:09:43.507Z,6.82
2024-02-13T01:14:47.810Z,2.53
2024-02-13T01:19:51.892Z,6.03
2024-02-13T01:24:58.355Z,4.07
2024-02-13T01:30:03.050Z,5.15
2024-02-13T01:35:10.031Z,5.55
2024-02-13T01:40:17.585Z,4.93
2024-02-13T01:45:22.498Z,5.03
2024-02-13T01:50:34.952Z,4.78
2024-02-13T01:55:41.804Z,7.13
2024-02-13T02:00:46.291Z,6.55
2024-02-13T02:05:51.019Z,4.15
2024-02-13T02:10:59.985Z,5.15
2024-02-13T02:16:04.187Z,7.13
2024-02-13T02:21:09.190Z,5.95
2024-02-13T02:26:15.018Z,6.40
2024-02-13T02:31:39.550Z,3.42
2024-02-13T02:36:43.600Z,2.97
2024-02-13T02:41:49.167Z,5.65
2024-02-13T02:46:53.423Z,7.32
2024-02-13T02:51:59.329Z,5.25
2024-02-13T02:57:05.756Z,8.50
2024-02-13T03:02:10.326Z,4.85
2024-02-13T03:07:14.448Z,6.63
2024-02-13T03:12:19.853Z,4.28
2024-02-13T03:17:24.477Z,3.93
2024-02-13T03:22:29.374Z,4.65
2024-02-13T03:27:35.004Z,4.10
2024-02-13T03:32:39.198Z,5.50
2024-02-13T03:37:43.368Z,3.60
2024-02-13T03:42:48.745Z,5.53
2024-02-13T03:47:52.887Z,3.47
2024-02-13T03:52:57.373Z,4.60
2024-02-13T03:58:02.951Z,6.27
2024-02-13T04:03:07.430Z,4.68
2024-02-13T04:08:11.837Z,4.80
2024-02-13T04:13:16.975Z,6.28
2024-02-13T04:18:21.053Z,4.82
2024-02-13T04:23:25.191Z,3.42
2024-02-13T04:28:30.364Z,3.90
2024-02-13T04:33:34.644Z,6.13
2024-02-13T04:38:38.798Z,5.80
2024-02-13T04:43:44.601Z,7.32
2024-02-13T04:48:49.008Z,3.42
2024-02-13T04:53:53.634Z,4.35
2024-02-13T04:58:59.369Z,4.07
2024-02-13T05:04:21.034Z,3.47
2024-02-13T05:09:25.262Z,4.53
2024-02-13T05:14:32.038Z,5.50
2024-02-13T05:19:36.045Z,5.43
2024-02-13T05:24:40.506Z,6.32
2024-02-13T05:29:46.094Z,3.77
2024-02-13T05:34:50.272Z,5.27
2024-02-13T05:39:55.502Z,4.70
2024-02-13T05:45:01.225Z,7.97
2024-02-13T05:50:09.144Z,7.83
2024-02-13T05:55:13.443Z,5.03
2024-02-13T06:00:19.409Z,7.80
2024-02-13T06:05:24.485Z,7.38
2024-02-13T06:10:28.697Z,6.78
2024-02-13T06:15:34.448Z,5.63
2024-02-13T06:20:38.913Z,9.35
2024-02-13T06:25:42.633Z,8.43
2024-02-13T06:30:48.815Z,7.78
2024-02-13T06:35:53.133Z,7.72
2024-02-13T06:41:06.486Z,6.43
2024-02-13T06:46:13.622Z,10.13
2024-02-13T06:51:19.181Z,7.50
2024-02-13T06:56:23.348Z,7.23
2024-02-13T07:01:28.993Z,8.67
2024-02-13T07:06:44.011Z,9.83
2024-02-13T07:11:59.228Z,7.68
2024-02-13T07:17:04.483Z,8.13
2024-02-13T07:22:09.169Z,6.30
2024-02-13T07:27:13.109Z,5.82
2024-02-13T07:32:18.702Z,6.28
2024-02-13T07:37:22.576Z,9.57
2024-02-13T07:42:29.169Z,5.40
2024-02-13T07:47:35.328Z,8.70
2024-02-13T07:52:39.285Z,2.10
2024-02-13T07:57:42.995Z,6.32
2024-02-13T08:02:49.998Z,7.72
2024-02-13T08:07:54.308Z,7.15
2024-02-13T08:12:59.036Z,8.63
2024-02-13T08:18:04.462Z,7.28
2024-02-13T08:23:08.430Z,3.72
2024-02-13T08:28:14.084Z,3.45
2024-02-13T08:33:20.965Z,5.72
2024-02-13T08:38:25.165Z,9.43
2024-02-13T08:43:29.150Z,4.57
2024-02-13T08:48:34.758Z,2.28
2024-02-13T08:53:38.858Z,10.05
2024-02-13T08:58:44.176Z,8.07
2024-02-13T09:03:49.806Z,6.60
2024-02-13T09:09:14.031Z,6.38
2024-02-13T09:14:19.687Z,5.45
2024-02-13T09:19:26.875Z,10.85
2024-02-13T09:24:30.898Z,6.60
2024-02-13T09:29:34.653Z,7.75
2024-02-13T09:34:39.871Z,5.03
2024-02-13T09:39:43.646Z,6.25
2024-02-13T09:44:48.804Z,4.05
2024-02-13T09:49:54.065Z,5.85
2024-02-13T09:55:00.689Z,8.15
2024-02-13T10:00:04.902Z,4.78
2024-02-13T10:05:13.338Z,7.65
2024-02-13T10:10:18.294Z,3.95
2024-02-13T10:15:22.893Z,5.70
2024-02-13T10:20:29.181Z,6.55
2024-02-13T10:25:34.434Z,5.05
2024-02-13T10:30:39.090Z,5.55
2024-02-13T10:35:45.548Z,5.07
2024-02-13T10:40:50.604Z,3.42
2024-02-13T10:46:00.791Z,3.97
2024-02-13T10:51:08.815Z,2.42
2024-02-13T10:56:13.984Z,2.63
2024-02-13T11:01:23.558Z,3.83
2024-02-13T11:06:29.700Z,3.67
2024-02-13T11:11:33.816Z,4.38
2024-02-13T11:16:38.133Z,3.03
2024-02-13T11:22:03.520Z,4.28
2024-02-13T11:27:30.254Z,2.38
2024-02-13T11:32:39.252Z,3.25
2024-02-13T11:37:45.587Z,1.83
2024-02-13T11:42:50.464Z,1.23
2024-02-13T11:47:55.814Z,1.45
2024-02-13T11:53:02.523Z,1.90
2024-02-13T11:58:11.020Z,2.95
2024-02-13T12:03:15.397Z,4.63
2024-02-13T12:08:22.028Z,3.78
2024-02-13T12:13:26.539Z,1.23
2024-02-13T12:18:31.242Z,5.15
2024-02-13T12:23:37.220Z,4.03
2024-02-13T12:28:44.226Z,3.30
2024-02-13T12:33:50.341Z,5.00
2024-02-13T12:39:09.834Z,3.08
2024-02-13T12:44:14.869Z,5.00
2024-02-13T12:49:21.109Z,4.10
2024-02-13T12:54:28.055Z,3.58
2024-02-13T12:59:39.270Z,2.15
2024-02-13T13:04:43.450Z,2.33
2024-02-13T13:09:48.612Z,5.45
2024-02-13T13:14:54.467Z,3.03
2024-02-13T13:19:58.656Z,4.65
2024-02-13T13:25:11.013Z,4.90
2024-02-13T13:30:17.010Z,1.50
2024-02-13T13:35:30.172Z,3.67
2024-02-13T13:40:38.769Z,5.47
2024-02-13T13:45:55.036Z,3.08
2024-02-13T13:50:59.348Z,4.10
2024-02-13T13:56:04.961Z,3.47
2024-02-13T14:01:09.128Z,2.45
2024-02-13T14:06:13.278Z,3.10
2024-02-13T14:11:20.252Z,4.63
2024-02-13T14:16:27.303Z,3.58
2024-02-13T14:21:31.579Z,4.53
2024-02-13T14:26:36.836Z,2.03
2024-02-13T14:31:42.281Z,4.93
2024-02-13T14:36:48.435Z,4.65
2024-02-13T14:41:56.011Z,3.72
2024-02-13T14:47:04.232Z,4.63
2024-02-13T14:52:11.244Z,5.28
2024-02-13T14:57:19.068Z,2.50
2024-02-13T15:02:23.832Z,3.40
2024-02-13T15:07:28.400Z,5.05
2024-02-13T15:12:33.954Z,3.83
2024-02-13T15:17:37.914Z,3.78
2024-02-13T15:22:45.485Z,3.65
2024-02-13T15:27:50.698Z,4.50
2024-02-13T15:32:54.898Z,3.58
2024-02-13T15:38:16.841Z,5.75
2024-02-13T15:43:39.598Z,8.55
2024-02-13T15:48:46.934Z,6.50
2024-02-13T15:53:51.693Z,8.52
2024-02-13T15:58:57.779Z,8.13
2024-02-13T16:04:02.968Z,14.55
2024-02-13T16:09:09.612Z,9.40
2024-02-13T16:14:15.078Z,6.07
2024-02-13T16:19:19.304Z,2.53
2024-02-13T16:24:23.353Z,10.00
2024-02-13T16:29:28.885Z,8.30
2024-02-13T16:34:33.496Z,9.60
2024-02-13T16:39:37.862Z,10.75
2024-02-13T16:44:43.509Z,5.10
2024-02-13T16:49:47.622Z,4.93
2024-02-13T16:54:54.250Z,7.57
2024-02-13T17:00:03.152Z,7.07
2024-02-13T17:05:13.310Z,5.57
2024-02-13T17:10:17.773Z,6.30
2024-02-13T17:15:23.177Z,21.65
2024-02-13T17:20:35.297Z,29.25
2024-02-13T17:25:39.845Z,27.42
2024-02-13T17:30:46.064Z,18.55
2024-02-13T17:35:50.778Z,20.95
2024-02-13T17:40:55.270Z,22.20
2024-02-13T17:46:00.743Z,21.02
2024-02-13T17:51:05.109Z,11.68
2024-02-13T17:56:10.764Z,12.35
2024-02-13T18:01:17.209Z,10.50
2024-02-13T18:06:21.440Z,10.70
2024-02-13T18:11:25.691Z,11.48
2024-02-13T18:16:31.670Z,12.20
2024-02-13T18:21:38.797Z,16.92
2024-02-13T18:26:43.044Z,12.25
2024-02-13T18:31:48.346Z,15.50
2024-02-13T18:36:52.564Z,10.05
2024-02-13T18:41:56.711Z,26.20
2024-02-13T18:47:02.557Z,15.13
2024-02-13T18:52:07.368Z,14.55
2024-02-13T18:57:11.636Z,13.05
2024-02-13T19:02:20.442Z,12.85
2024-02-13T19:07:24.824Z,9.95
2024-02-13T19:12:29.109Z,15.10
2024-02-13T19:17:35.490Z,12.27
2024-02-13T19:22:39.682Z,11.00
2024-02-13T19:27:43.966Z,8.88
2024-02-13T19:32:49.420Z,8.38
2024-02-13T19:37:53.650Z,10.52
2024-02-13T19:42:58.978Z,10.55
2024-02-13T19:48:04.653Z,17.23
2024-02-13T19:53:28.725Z,17.57
2024-02-13T19:58:53.082Z,17.30
2024-02-13T20:04:19.020Z,15.13
2024-02-13T20:09:44.301Z,14.83
2024-02-13T20:14:48.676Z,16.55
2024-02-13T20:19:55.648Z,17.47
2024-02-13T20:24:59.935Z,24.20
2024-02-13T20:30:04.229Z,23.17
2024-02-13T20:35:12.037Z,20.67
2024-02-13T20:40:16.192Z,13.07
2024-02-13T20:45:24.277Z,11.63
2024-02-13T20:50:29.839Z,10.40
2024-02-13T20:55:33.925Z,12.20
2024-02-13T21:00:38.436Z,9.63
2024-02-13T21:05:46.317Z,11.63
2024-02-13T21:10:51.325Z,9.60
2024-02-13T21:15:56.434Z,13.63
2024-02-13T21:21:34.446Z,10.60
2024-02-13T21:26:41.432Z,12.67
2024-02-13T21:31:48.052Z,11.97
2024-02-13T21:36:53.474Z,11.83
2024-02-13T21:41:57.644Z,11.63
2024-02-13T21:47:01.486Z,11.67
2024-02-13T21:52:07.695Z,12.27
2024-02-13T21:57:12.381Z,11.30
2024-02-13T22:02:16.577Z,12.07
2024-02-13T22:07:22.000Z,12.77
2024-02-13T22:12:26.241Z,12.70
2024-02-13T22:17:30.719Z,9.17
2024-02-13T22:22:36.895Z,8.50
2024-02-13T22:27:42.213Z,8.07
2024-02-13T22:32:48.015Z,9.47
2024-02-13T22:37:54.651Z,8.97
2024-02-13T22:42:58.459Z,10.07
2024-02-13T22:48:04.013Z,11.37
2024-02-13T22:53:09.664Z,13.57
2024-02-13T22:58:14.069Z,12.00
2024-02-13T23:03:18.575Z,10.13
2024-02-13T23:08:25.867Z,11.00
2024-02-13T23:13:36.069Z,8.40
2024-02-13T23:18:45.080Z,12.33
2024-02-13T23:23:50.563Z,7.10
2024-02-13T23:28:57.167Z,6.50
2024-02-13T23:34:02.181Z,8.93
2024-02-13T23:39:07.598Z,8.53
2024-02-13T23:44:12.192Z,6.07
2024-02-13T23:49:16.622Z,14.80
2024-02-13T23:54:22.110Z,18.50
2024-02-13T23:59:26.402Z,22.53
